Wentworth, Missouri
Current Conditions -  °F | °C
As of 12:15 PM on Thursday 18 Dec 2014 (Local Time) from KHFJ Reporting Station
Haze Haze  
Wind Chill: 34°   Ceiling: 300
Heat Index: 37°   Visibility: 5mi
Dew Point: 36°   Wind: 5mph
Humidity: 93%   Direction: 220°SW
Pressure: 30.15"   Gusts: NA
Location:  36.99°N, 94.07°W
Report Text: KHFJ 181815Z AUTO 22004KT 5SM BR OVC003 03/02 A3015 RMK AO2
Loading
Personal Weather Stations






























Interactive Weather Map New forecast layout! Learn more

10-Day Weather Forecast

Advertisements
Track Severe Weather on mobile